createdAt,value
2019-02-28T00:01:23.311Z,66.10
2019-02-28T00:03:58.062Z,66.23
2019-02-28T00:06:30.941Z,66.55
2019-02-28T00:09:02.527Z,66.64
2019-02-28T00:11:36.083Z,66.63
2019-02-28T00:14:08.971Z,66.76
2019-02-28T00:16:45.640Z,66.54
2019-02-28T00:19:17.202Z,66.53
2019-02-28T00:21:54.630Z,66.68
2019-02-28T00:24:30.026Z,66.94
2019-02-28T00:27:00.641Z,66.98
2019-02-28T00:29:34.430Z,67.11
2019-02-28T00:32:07.757Z,67.22
2019-02-28T00:34:41.566Z,67.17
2019-02-28T00:37:16.297Z,67.50
2019-02-28T00:39:47.891Z,67.54
2019-02-28T00:42:25.562Z,67.48
2019-02-28T00:45:02.365Z,67.59
2019-02-28T00:47:33.248Z,67.67
2019-02-28T00:50:07.567Z,67.22
2019-02-28T00:52:38.221Z,67.57
2019-02-28T00:55:15.513Z,67.85
2019-02-28T00:57:51.057Z,67.79
2019-02-28T01:00:25.352Z,67.65
2019-02-28T01:03:03.273Z,67.84
2019-02-28T01:05:36.650Z,67.89
2019-02-28T01:08:09.475Z,67.92
2019-02-28T01:10:51.149Z,67.87
2019-02-28T01:13:27.305Z,66.99
2019-02-28T01:15:57.642Z,67.50
2019-02-28T01:18:29.207Z,67.44
2019-02-28T01:21:07.590Z,66.97
2019-02-28T01:23:40.584Z,67.49
2019-02-28T01:26:15.880Z,67.62
2019-02-28T01:28:47.475Z,68.27
2019-02-28T01:31:19.002Z,68.64
2019-02-28T01:33:56.068Z,68.51
2019-02-28T01:36:26.812Z,68.61
2019-02-28T01:39:09.007Z,68.81
2019-02-28T01:41:45.275Z,68.76
2019-02-28T01:44:16.340Z,69.25
2019-02-28T01:46:52.085Z,69.19
2019-02-28T01:49:26.024Z,69.39
2019-02-28T01:51:56.896Z,69.56
2019-02-28T01:54:28.514Z,69.18
2019-02-28T01:57:00.028Z,68.51
2019-02-28T01:59:33.854Z,69.38
2019-02-28T02:02:08.338Z,69.47
2019-02-28T02:04:39.880Z,69.67
2019-02-28T02:07:14.427Z,69.78
2019-02-28T02:09:46.918Z,70.45
2019-02-28T02:12:18.642Z,70.27
2019-02-28T02:14:50.177Z,69.73
2019-02-28T02:17:25.019Z,69.44
2019-02-28T02:19:56.841Z,69.69
2019-02-28T02:22:30.745Z,69.59
2019-02-28T02:25:03.158Z,69.90
2019-02-28T02:27:36.952Z,70.04
2019-02-28T02:30:17.111Z,69.90
2019-02-28T02:32:48.645Z,69.96
2019-02-28T02:35:23.007Z,70.08
2019-02-28T02:37:54.723Z,70.38
2019-02-28T02:40:28.632Z,70.29
2019-02-28T02:43:00.481Z,70.67
2019-02-28T02:45:41.947Z,70.58
2019-02-28T02:48:08.683Z,70.52
2019-02-28T02:50:43.168Z,70.51
2019-02-28T02:53:16.656Z,70.53
2019-02-28T02:55:49.478Z,70.44
2019-02-28T02:58:26.887Z,70.55
2019-02-28T03:00:54.298Z,70.62
2019-02-28T03:03:28.608Z,70.96
2019-02-28T03:06:01.258Z,70.41
2019-02-28T03:08:36.305Z,70.31
2019-02-28T03:11:06.192Z,69.80
2019-02-28T03:13:43.686Z,69.44
2019-02-28T03:16:20.439Z,69.99
2019-02-28T03:18:57.997Z,70.42
2019-02-28T03:21:30.099Z,70.85
2019-02-28T03:24:03.493Z,71.14
2019-02-28T03:26:41.602Z,71.43
2019-02-28T03:29:10.759Z,71.53
2019-02-28T03:31:55.100Z,71.43
2019-02-28T03:34:25.103Z,71.27
2019-02-28T03:37:00.812Z,71.47
2019-02-28T03:39:32.648Z,71.08
2019-02-28T03:42:04.228Z,71.18
2019-02-28T03:44:36.054Z,70.84
2019-02-28T03:47:07.900Z,70.64
2019-02-28T03:49:39.732Z,71.25
2019-02-28T03:52:11.287Z,71.37
2019-02-28T03:54:43.111Z,71.42
2019-02-28T03:57:14.958Z,71.15
2019-02-28T03:59:46.514Z,70.71
2019-02-28T04:02:22.244Z,70.52
2019-02-28T04:04:52.483Z,71.37
2019-02-28T04:07:24.346Z,71.44
2019-02-28T04:09:56.174Z,71.35
2019-02-28T04:12:28.007Z,71.63
2019-02-28T04:14:59.956Z,70.98
2019-02-28T04:17:31.783Z,71.52
2019-02-28T04:20:07.494Z,71.43
2019-02-28T04:22:39.347Z,71.91
2019-02-28T04:25:11.242Z,71.29
2019-02-28T04:27:43.118Z,71.88
2019-02-28T04:30:17.439Z,71.64
2019-02-28T04:32:49.003Z,71.83
2019-02-28T04:35:24.341Z,71.93
2019-02-28T04:37:54.390Z,72.11
2019-02-28T04:40:27.017Z,71.53
2019-02-28T04:43:01.408Z,71.88
2019-02-28T04:45:33.356Z,71.83
2019-02-28T04:48:05.428Z,72.12
2019-02-28T04:50:37.283Z,71.64
2019-02-28T04:53:10.100Z,72.01
2019-02-28T04:55:41.961Z,71.90
2019-02-28T04:58:13.808Z,72.21
2019-02-28T05:00:45.641Z,71.83
2019-02-28T05:03:17.502Z,71.20
2019-02-28T05:05:50.955Z,71.49
2019-02-28T05:08:24.552Z,69.72
2019-02-28T05:10:56.837Z,69.78
2019-02-28T05:13:28.717Z,69.80
2019-02-28T05:16:01.997Z,70.02
2019-02-28T05:18:34.931Z,70.38
2019-02-28T05:21:06.761Z,71.32
2019-02-28T05:23:38.597Z,71.76
2019-02-28T05:26:10.184Z,71.79
2019-02-28T05:28:42.033Z,71.84
2019-02-28T05:31:13.853Z,72.37
2019-02-28T05:33:45.680Z,72.35
2019-02-28T05:36:17.547Z,72.26
2019-02-28T05:38:49.400Z,72.34
2019-02-28T05:41:21.254Z,72.64
2019-02-28T05:43:53.083Z,72.55
2019-02-28T05:46:24.971Z,72.42
2019-02-28T05:48:56.865Z,72.35
2019-02-28T05:51:28.715Z,72.24
2019-02-28T05:54:00.559Z,72.12
2019-02-28T05:56:33.144Z,72.15
2019-02-28T05:59:05.989Z,71.77
2019-02-28T06:01:37.866Z,71.40
2019-02-28T06:04:09.799Z,71.70
2019-02-28T06:06:41.771Z,71.53
2019-02-28T06:09:14.553Z,71.90
2019-02-28T06:11:46.766Z,71.94
2019-02-28T06:14:18.592Z,71.95
2019-02-28T06:16:50.448Z,71.67
2019-02-28T06:19:22.261Z,71.94
2019-02-28T06:21:56.441Z,72.00
2019-02-28T06:24:27.632Z,72.25
2019-02-28T06:27:03.738Z,72.17
2019-02-28T06:29:36.786Z,72.11
2019-02-28T06:32:08.154Z,72.32
2019-02-28T06:34:42.224Z,72.26
2019-02-28T06:37:15.404Z,70.85
2019-02-28T06:39:47.237Z,69.22
2019-02-28T06:42:19.144Z,68.72
2019-02-28T06:44:50.991Z,68.95
2019-02-28T06:47:22.833Z,68.71
2019-02-28T06:49:54.667Z,68.97
2019-02-28T06:52:29.008Z,68.93
2019-02-28T06:55:00.919Z,68.43
2019-02-28T06:57:33.115Z,68.78
2019-02-28T07:00:10.388Z,68.51
2019-02-28T07:02:44.501Z,67.96
2019-02-28T07:05:24.273Z,68.27
2019-02-28T07:07:54.785Z,66.99
2019-02-28T07:10:32.546Z,66.83
2019-02-28T07:13:05.810Z,66.44
2019-02-28T07:15:37.688Z,65.62
2019-02-28T07:18:12.460Z,65.00
2019-02-28T07:20:44.050Z,65.28
2019-02-28T07:23:17.472Z,64.86
2019-02-28T07:25:52.414Z,63.95
2019-02-28T07:28:24.098Z,63.83
2019-02-28T07:30:58.021Z,63.83
2019-02-28T07:33:32.753Z,64.18
2019-02-28T07:36:09.655Z,63.54
2019-02-28T07:38:44.426Z,63.46
2019-02-28T07:41:20.321Z,62.67
2019-02-28T07:43:53.872Z,62.27
2019-02-28T07:46:25.431Z,61.73
2019-02-28T07:49:00.922Z,62.69
2019-02-28T07:51:33.219Z,61.96
2019-02-28T07:54:06.356Z,61.77
2019-02-28T07:56:43.145Z,62.30
2019-02-28T07:59:20.039Z,62.04
2019-02-28T08:01:51.651Z,63.04
2019-02-28T08:04:23.217Z,62.51
2019-02-28T08:06:57.933Z,61.70
2019-02-28T08:09:31.529Z,60.60
2019-02-28T08:12:03.100Z,63.00
2019-02-28T08:14:37.714Z,61.64
2019-02-28T08:17:09.971Z,61.70
2019-02-28T08:19:41.650Z,61.25
2019-02-28T08:22:16.042Z,61.49
2019-02-28T08:24:49.827Z,60.26
2019-02-28T08:27:25.445Z,61.81
2019-02-28T08:29:57.897Z,61.69
2019-02-28T08:32:29.509Z,61.20
2019-02-28T08:35:02.743Z,59.69
2019-02-28T08:37:37.901Z,56.70
2019-02-28T08:40:19.361Z,52.81
2019-02-28T08:42:51.017Z,54.91
2019-02-28T08:45:23.655Z,52.84
2019-02-28T08:47:56.993Z,58.16
2019-02-28T08:50:31.912Z,55.64
2019-02-28T08:53:03.598Z,51.71
2019-02-28T08:55:39.470Z,51.05
2019-02-28T08:58:13.141Z,49.65
2019-02-28T09:00:44.746Z,50.74
2019-02-28T09:03:17.374Z,49.49
2019-02-28T09:05:54.705Z,49.57
2019-02-28T09:08:29.071Z,50.75
2019-02-28T09:11:00.678Z,50.50
2019-02-28T09:13:34.611Z,50.10
2019-02-28T09:16:06.426Z,50.36
2019-02-28T09:18:40.782Z,50.20
2019-02-28T09:21:15.389Z,50.62
2019-02-28T09:23:51.917Z,49.71
2019-02-28T09:26:28.180Z,49.06
2019-02-28T09:29:02.500Z,50.23
2019-02-28T09:31:38.683Z,49.54
2019-02-28T09:34:09.298Z,48.10
2019-02-28T09:36:44.096Z,47.95
2019-02-28T09:39:16.304Z,48.34
2019-02-28T09:41:48.953Z,49.33
2019-02-28T09:44:21.837Z,47.07
2019-02-28T09:46:55.705Z,47.58
2019-02-28T09:49:30.107Z,48.74
2019-02-28T09:52:03.274Z,47.48
2019-02-28T09:54:34.936Z,47.06
2019-02-28T09:57:06.775Z,47.73
2019-02-28T09:59:42.246Z,47.74
2019-02-28T10:02:13.844Z,47.25
2019-02-28T10:04:47.171Z,47.92
2019-02-28T10:07:23.367Z,47.43
2019-02-28T10:09:56.768Z,48.12
2019-02-28T10:12:28.346Z,48.38
2019-02-28T10:15:00.635Z,48.12
2019-02-28T10:17:33.597Z,47.81
2019-02-28T10:20:08.022Z,47.73
2019-02-28T10:22:39.605Z,47.42
2019-02-28T10:25:12.700Z,47.98
2019-02-28T10:27:46.771Z,47.51
2019-02-28T10:30:31.285Z,48.52
2019-02-28T10:32:59.791Z,47.28
2019-02-28T10:35:33.488Z,48.09
2019-02-28T10:38:04.655Z,47.85
2019-02-28T10:40:38.755Z,48.47
2019-02-28T10:43:15.369Z,48.73
2019-02-28T10:45:46.453Z,48.89
2019-02-28T10:48:21.011Z,49.05
2019-02-28T10:50:52.291Z,49.61
2019-02-28T10:53:23.855Z,50.12
2019-02-28T10:55:57.950Z,49.67
2019-02-28T10:58:30.398Z,48.88
2019-02-28T11:01:07.714Z,49.88
2019-02-28T11:03:35.289Z,49.53
2019-02-28T11:06:06.876Z,49.36
2019-02-28T11:08:38.438Z,48.80
2019-02-28T11:11:10.521Z,48.85
2019-02-28T11:13:42.860Z,49.89
2019-02-28T11:16:14.464Z,48.33
2019-02-28T11:18:46.107Z,48.63
2019-02-28T11:21:17.862Z,48.05
2019-02-28T11:23:50.256Z,49.02
2019-02-28T11:26:21.878Z,48.17
2019-02-28T11:28:53.626Z,48.44
2019-02-28T11:31:25.809Z,48.44
2019-02-28T11:33:57.594Z,47.55
2019-02-28T11:36:30.466Z,47.14
2019-02-28T11:39:05.842Z,47.61
2019-02-28T11:41:38.770Z,47.46
2019-02-28T11:44:11.985Z,47.32
2019-02-28T11:46:44.510Z,48.03
2019-02-28T11:49:16.094Z,47.90
2019-02-28T11:51:49.459Z,47.98
2019-02-28T11:54:22.448Z,48.18
2019-02-28T11:56:54.031Z,48.20
2019-02-28T11:59:25.600Z,48.52
2019-02-28T12:01:59.925Z,47.89
2019-02-28T12:04:33.101Z,48.32
2019-02-28T12:07:06.389Z,47.64
2019-02-28T12:09:41.876Z,47.12
2019-02-28T12:12:13.450Z,47.29
2019-02-28T12:14:45.154Z,47.34
2019-02-28T12:17:19.768Z,47.24
2019-02-28T12:19:51.400Z,48.15
2019-02-28T12:22:24.327Z,47.94
2019-02-28T12:24:58.586Z,47.79
2019-02-28T12:27:30.385Z,48.12
2019-02-28T12:30:01.946Z,46.60
2019-02-28T12:32:33.610Z,46.67
2019-02-28T12:35:08.521Z,46.72
2019-02-28T12:37:40.137Z,46.76
2019-02-28T12:40:21.452Z,47.03
2019-02-28T12:42:55.125Z,47.00
2019-02-28T12:45:30.487Z,47.05
2019-02-28T12:48:04.563Z,47.13
2019-02-28T12:50:36.126Z,46.69
2019-02-28T12:53:07.760Z,47.42
2019-02-28T12:55:40.920Z,47.43
2019-02-28T12:58:13.793Z,47.46
2019-02-28T13:00:45.847Z,47.11
2019-02-28T13:03:20.059Z,47.26
2019-02-28T13:05:50.823Z,46.98
2019-02-28T13:08:25.484Z,46.83
2019-02-28T13:11:03.134Z,47.26
2019-02-28T13:13:35.358Z,46.58
2019-02-28T13:16:09.245Z,46.72
2019-02-28T13:18:43.587Z,46.45
2019-02-28T13:21:15.234Z,44.38
2019-02-28T13:23:46.803Z,44.77
2019-02-28T13:26:18.386Z,45.07
2019-02-28T13:28:49.969Z,45.20
2019-02-28T13:31:27.064Z,45.53
2019-02-28T13:34:08.599Z,45.55
2019-02-28T13:36:40.225Z,45.60
2019-02-28T13:39:11.907Z,45.68
2019-02-28T13:41:43.497Z,46.11
2019-02-28T13:44:15.093Z,46.36
2019-02-28T13:46:46.662Z,47.01
2019-02-28T13:49:19.904Z,47.24
2019-02-28T13:51:54.593Z,47.37
2019-02-28T13:54:33.995Z,47.19
2019-02-28T13:57:09.687Z,47.70
2019-02-28T13:59:38.949Z,47.64
2019-02-28T14:02:13.613Z,47.68
2019-02-28T14:04:46.241Z,47.29
2019-02-28T14:07:21.638Z,47.37
2019-02-28T14:09:58.147Z,46.77
2019-02-28T14:12:28.832Z,46.65
2019-02-28T14:15:15.438Z,46.28
2019-02-28T14:17:47.484Z,46.57
2019-02-28T14:20:20.585Z,46.17
2019-02-28T14:22:58.417Z,46.24
2019-02-28T14:25:32.278Z,46.12
2019-02-28T14:28:04.171Z,45.93
2019-02-28T14:30:35.791Z,45.69
2019-02-28T14:33:07.593Z,45.60
2019-02-28T14:35:41.189Z,45.71
2019-02-28T14:38:15.482Z,45.71
2019-02-28T14:40:52.783Z,45.96
2019-02-28T14:43:28.514Z,45.76
2019-02-28T14:46:10.187Z,45.47
2019-02-28T14:48:44.472Z,46.00
2019-02-28T14:51:16.061Z,45.89
2019-02-28T14:53:50.103Z,45.66
2019-02-28T14:56:26.635Z,45.59
2019-02-28T14:58:58.327Z,45.70
2019-02-28T15:01:29.920Z,45.58
2019-02-28T15:04:02.769Z,45.98
2019-02-28T15:06:37.065Z,45.60
2019-02-28T15:09:19.254Z,46.01
2019-02-28T15:11:52.333Z,45.60
2019-02-28T15:14:28.901Z,46.12
2019-02-28T15:17:02.037Z,46.06
2019-02-28T15:19:33.791Z,46.52
2019-02-28T15:22:05.519Z,46.00
2019-02-28T15:24:40.536Z,46.41
2019-02-28T15:27:14.776Z,46.49
2019-02-28T15:29:46.372Z,45.90
2019-02-28T15:32:20.748Z,45.84
2019-02-28T15:34:53.619Z,46.31
2019-02-28T15:37:25.352Z,46.88
2019-02-28T15:39:56.943Z,46.52
2019-02-28T15:42:28.567Z,46.61
2019-02-28T15:45:03.925Z,46.96
2019-02-28T15:47:35.479Z,46.96
2019-02-28T15:50:08.608Z,46.28
2019-02-28T15:52:40.186Z,46.67
2019-02-28T15:55:13.094Z,46.91
2019-02-28T15:57:45.138Z,47.28
2019-02-28T16:00:22.075Z,47.43
2019-02-28T16:02:59.389Z,47.96
2019-02-28T16:05:31.005Z,47.98
2019-02-28T16:08:08.808Z,48.00
2019-02-28T16:10:36.122Z,48.27
2019-02-28T16:13:08.739Z,48.53
2019-02-28T16:15:46.353Z,48.73
2019-02-28T16:18:17.079Z,48.85
2019-02-28T16:20:50.916Z,49.28
2019-02-28T16:23:27.567Z,49.97
2019-02-28T16:26:00.258Z,50.46
2019-02-28T16:28:32.900Z,50.69
2019-02-28T16:31:06.415Z,50.79
2019-02-28T16:33:42.100Z,51.06
2019-02-28T16:36:15.930Z,51.37
2019-02-28T16:38:50.066Z,51.63
2019-02-28T16:41:23.506Z,51.83
2019-02-28T16:43:55.535Z,51.99
2019-02-28T16:46:30.161Z,51.86
2019-02-28T16:49:07.413Z,51.55
2019-02-28T16:51:39.560Z,51.11
2019-02-28T16:54:13.355Z,50.97
2019-02-28T16:56:46.602Z,51.11
2019-02-28T16:59:19.264Z,51.29
2019-02-28T17:01:54.768Z,51.33
2019-02-28T17:04:25.293Z,50.94
2019-02-28T17:06:59.890Z,51.19
2019-02-28T17:09:51.802Z,51.01
2019-02-28T17:12:54.124Z,50.85
2019-02-28T17:15:42.913Z,50.85
2019-02-28T17:18:21.581Z,50.94
2019-02-28T17:21:01.233Z,51.10
2019-02-28T17:23:33.686Z,51.26
2019-02-28T17:26:11.692Z,51.31
2019-02-28T17:28:49.749Z,51.35
2019-02-28T17:31:55.323Z,51.34
2019-02-28T17:34:26.896Z,51.56
2019-02-28T17:37:01.564Z,51.89
2019-02-28T17:39:34.767Z,52.46
2019-02-28T17:42:14.805Z,52.74
2019-02-28T17:45:25.961Z,53.28
2019-02-28T17:48:40.260Z,53.39
2019-02-28T17:51:39.797Z,53.48
2019-02-28T17:55:24.020Z,53.50
2019-02-28T17:58:38.816Z,53.90
2019-02-28T18:02:01.543Z,53.93
2019-02-28T18:05:38.765Z,54.40
2019-02-28T18:08:37.766Z,54.88
2019-02-28T18:12:31.458Z,55.17
2019-02-28T18:15:47.359Z,55.31
2019-02-28T18:18:59.794Z,55.86
2019-02-28T18:22:25.853Z,56.58
2019-02-28T18:25:41.501Z,57.07
2019-02-28T18:28:58.029Z,57.53
2019-02-28T18:31:30.783Z,57.66
2019-02-28T18:34:10.072Z,58.09
2019-02-28T18:36:43.548Z,58.24
2019-02-28T18:39:16.613Z,58.72
2019-02-28T18:41:52.818Z,58.99
2019-02-28T18:44:24.482Z,59.12
2019-02-28T18:46:57.178Z,59.41
2019-02-28T18:49:32.110Z,59.64
2019-02-28T18:52:03.730Z,59.67
2019-02-28T18:54:35.405Z,59.30
2019-02-28T18:57:07.027Z,59.17
2019-02-28T18:59:38.633Z,59.15
2019-02-28T19:02:10.277Z,59.26
2019-02-28T19:04:41.927Z,59.22
2019-02-28T19:07:14.703Z,59.50
2019-02-28T19:09:50.334Z,59.62
2019-02-28T19:12:23.903Z,59.59
2019-02-28T19:14:56.677Z,59.38
2019-02-28T19:17:28.354Z,59.46
2019-02-28T19:20:01.044Z,59.43
2019-02-28T19:22:32.895Z,59.39
2019-02-28T19:25:04.845Z,59.32
2019-02-28T19:27:40.144Z,59.34
2019-02-28T19:30:14.029Z,59.53
2019-02-28T19:32:47.281Z,59.30
2019-02-28T19:35:19.001Z,59.30
2019-02-28T19:37:50.570Z,59.43
2019-02-28T19:40:22.187Z,59.39
2019-02-28T19:42:53.746Z,59.64
2019-02-28T19:45:25.612Z,59.47
2019-02-28T19:47:57.170Z,59.37
2019-02-28T19:50:28.802Z,59.34
2019-02-28T19:53:00.438Z,59.35
2019-02-28T19:55:32.035Z,59.11
2019-02-28T19:58:03.719Z,59.36
2019-02-28T20:00:35.325Z,59.31
2019-02-28T20:03:06.913Z,59.24
2019-02-28T20:05:38.749Z,59.55
2019-02-28T20:08:10.338Z,59.51
2019-02-28T20:10:41.908Z,59.95
2019-02-28T20:13:13.503Z,59.75
2019-02-28T20:15:45.165Z,60.19
2019-02-28T20:18:17.206Z,60.18
2019-02-28T20:20:48.814Z,60.14
2019-02-28T20:23:20.399Z,60.14
2019-02-28T20:25:52.098Z,60.22
2019-02-28T20:28:23.769Z,60.18
2019-02-28T20:30:55.463Z,60.33
2019-02-28T20:33:27.271Z,60.39
2019-02-28T20:35:58.934Z,60.52
2019-02-28T20:38:30.516Z,60.63
2019-02-28T20:41:02.131Z,60.74
2019-02-28T20:43:33.834Z,61.01
2019-02-28T20:46:05.516Z,61.06
2019-02-28T20:48:37.297Z,61.09
2019-02-28T20:51:09.056Z,61.08
2019-02-28T20:53:40.976Z,61.08
2019-02-28T20:56:12.680Z,61.01
2019-02-28T20:58:44.363Z,60.95
2019-02-28T21:01:15.948Z,60.93
2019-02-28T21:03:47.675Z,60.94
2019-02-28T21:06:19.365Z,60.72
2019-02-28T21:08:50.961Z,60.93
2019-02-28T21:11:22.662Z,60.98
2019-02-28T21:13:54.364Z,60.86
2019-02-28T21:16:26.044Z,60.87
2019-02-28T21:18:58.272Z,60.89
2019-02-28T21:21:31.108Z,60.87
2019-02-28T21:24:02.721Z,60.83
2019-02-28T21:26:34.304Z,60.86
2019-02-28T21:29:05.897Z,60.69
2019-02-28T21:31:37.627Z,60.59
2019-02-28T21:34:09.365Z,60.48
2019-02-28T21:36:41.240Z,60.61
2019-02-28T21:39:13.162Z,60.58
2019-02-28T21:41:46.428Z,60.43
2019-02-28T21:44:18.229Z,60.43
2019-02-28T21:46:49.848Z,60.25
2019-02-28T21:49:21.425Z,60.14
2019-02-28T21:51:53.024Z,60.33
2019-02-28T21:54:24.671Z,60.22
2019-02-28T21:56:56.311Z,59.97
2019-02-28T21:59:29.535Z,60.03
2019-02-28T22:02:01.203Z,60.16
2019-02-28T22:04:32.849Z,60.19
2019-02-28T22:07:04.556Z,59.89
2019-02-28T22:09:36.172Z,59.71
2019-02-28T22:12:07.864Z,59.98
2019-02-28T22:14:39.453Z,59.86
2019-02-28T22:17:11.056Z,59.89
2019-02-28T22:19:42.665Z,59.81
2019-02-28T22:22:14.268Z,59.79
2019-02-28T22:24:45.848Z,59.72
2019-02-28T22:27:17.466Z,59.89
2019-02-28T22:29:49.021Z,59.88
2019-02-28T22:32:24.808Z,59.67
2019-02-28T22:35:04.520Z,59.58
2019-02-28T22:37:36.131Z,59.51
2019-02-28T22:40:08.032Z,59.37
2019-02-28T22:42:39.679Z,59.37
2019-02-28T22:45:11.375Z,59.25
2019-02-28T22:47:42.970Z,59.01
2019-02-28T22:50:14.544Z,59.18
2019-02-28T22:52:46.147Z,59.20
2019-02-28T22:55:17.714Z,59.46
2019-02-28T22:57:49.292Z,59.64
2019-02-28T23:00:46.924Z,59.60
2019-02-28T23:03:19.751Z,59.67
2019-02-28T23:05:51.311Z,60.04
2019-02-28T23:08:22.896Z,60.31
2019-02-28T23:10:54.501Z,60.63
2019-02-28T23:13:26.087Z,60.72
2019-02-28T23:15:57.739Z,61.31
2019-02-28T23:18:29.330Z,61.65
2019-02-28T23:21:00.883Z,61.79
2019-02-28T23:23:32.459Z,62.24
2019-02-28T23:26:16.900Z,62.80
2019-02-28T23:29:04.777Z,63.45
2019-02-28T23:32:32.596Z,63.94
2019-02-28T23:35:04.782Z,64.22
2019-02-28T23:37:36.382Z,66.13
2019-02-28T23:40:08.455Z,68.75
2019-02-28T23:42:40.075Z,69.94
2019-02-28T23:45:11.931Z,70.73
2019-02-28T23:47:43.529Z,72.11
2019-02-28T23:50:15.092Z,72.35
2019-02-28T23:52:46.661Z,73.64
2019-02-28T23:55:18.238Z,74.55
2019-02-28T23:57:49.791Z,74.69
